Time;durP1;ratioP1;P1;durP2;ratioP2;P2;SDS_P1;SDS_P2;PMS_P1;PMS_P2;Temp;Humidity;BMP_temperature;BMP_pressure;BME280_temperature;BME280_humidity;BME280_pressure;Samples;Min_cycle;Max_cycle;Signal;HPM_P1;HPM_P2
2021/03/30 00:00:21;;;;;;;15.37;7.13;;;;;;;7.93;68.67;97450.09;1043720;28;20025;-77
2021/03/30 00:00:51;;;;;;;14.23;7.70;;;;;;;7.93;68.74;97445.59;1047108;28;20448;-76
2021/03/30 00:01:22;;;;;;;13.60;7.47;;;;;;;7.92;68.70;97453.81;1047474;28;20016;-76
2021/03/30 00:01:52;;;;;;;13.33;7.13;;;;;;;7.92;68.91;97448.47;1045741;28;20391;-77
2021/03/30 00:02:23;;;;;;;14.57;7.80;;;;;;;7.85;68.80;97450.38;1043774;28;20108;-77
2021/03/30 00:02:53;;;;;;;14.57;7.13;;;;;;;7.84;69.32;97451.44;1044987;28;20036;-76
2021/03/30 00:03:23;;;;;;;15.83;7.40;;;;;;;7.86;68.75;97457.34;1044653;28;20033;-76
2021/03/30 00:03:54;;;;;;;26.13;7.90;;;;;;;7.84;69.07;97451.44;1044224;28;20625;-76
2021/03/30 00:04:24;;;;;;;17.27;7.53;;;;;;;7.83;68.79;97447.97;1042320;28;20489;-76
2021/03/30 00:04:55;;;;;;;15.20;7.70;;;;;;;7.82;68.52;97452.44;1044275;28;20032;-77
2021/03/30 00:05:25;;;;;;;18.00;7.80;;;;;;;7.81;68.75;97456.13;1041296;28;20060;-76
2021/03/30 00:05:56;;;;;;;12.03;6.90;;;;;;;7.79;68.68;97454.75;1035812;28;20017;-76
2021/03/30 00:06:26;;;;;;;15.87;7.93;;;;;;;7.77;68.36;97443.47;1033778;28;20062;-76
2021/03/30 00:06:57;;;;;;;16.33;7.83;;;;;;;7.76;68.82;97455.16;1043145;28;20434;-76
2021/03/30 00:07:27;;;;;;;12.97;7.20;;;;;;;7.74;68.67;97438.59;1043995;28;20024;-76
2021/03/30 00:07:57;;;;;;;14.73;7.40;;;;;;;7.75;68.64;97454.34;1048095;28;20040;-76
2021/03/30 00:08:28;;;;;;;14.27;7.97;;;;;;;7.73;68.65;97448.44;1048387;28;20035;-76
2021/03/30 00:08:58;;;;;;;13.20;7.70;;;;;;;7.74;68.99;97444.75;1044213;28;20021;-76
2021/03/30 00:09:29;;;;;;;15.50;7.63;;;;;;;7.74;68.93;97447.41;1043840;28;20060;-77
2021/03/30 00:09:59;;;;;;;16.70;7.93;;;;;;;7.74;68.31;97452.72;1044825;28;20025;-76
2021/03/30 00:10:43;;;;;;;17.70;7.47;;;;;;;7.75;68.35;97453.53;1045539;28;20032;-76
2021/03/30 00:11:13;;;;;;;17.55;7.63;;;;;;;7.75;68.46;97450.88;1048056;28;20052;-76
2021/03/30 00:11:43;;;;;;;13.57;7.33;;;;;;;7.75;68.35;97457.00;1048281;28;20084;-77
2021/03/30 00:12:14;;;;;;;15.77;7.93;;;;;;;7.75;68.28;97449.03;1048501;28;20028;-77
2021/03/30 00:12:44;;;;;;;17.30;7.43;;;;;;;7.72;68.27;97448.63;1048454;28;20029;-75
2021/03/30 00:13:15;;;;;;;15.77;7.33;;;;;;;7.74;68.13;97443.94;1048609;28;20048;-77
2021/03/30 00:13:45;;;;;;;19.83;7.07;;;;;;;7.71;68.18;97450.47;1048402;28;20016;-77
2021/03/30 00:14:16;;;;;;;14.57;7.43;;;;;;;7.73;68.33;97458.28;1047976;28;20020;-77
2021/03/30 00:14:46;;;;;;;16.40;7.60;;;;;;;7.72;68.48;97452.09;1047614;28;20096;-77
2021/03/30 00:15:17;;;;;;;16.73;8.17;;;;;;;7.70;68.50;97451.50;1039658;28;20034;-78
2021/03/30 00:15:47;;;;;;;18.37;7.33;;;;;;;7.72;68.43;97456.63;1039940;28;20017;-77
2021/03/30 00:16:18;;;;;;;14.73;7.77;;;;;;;7.70;69.01;97456.84;1044507;28;20367;-77
2021/03/30 00:16:48;;;;;;;16.67;7.20;;;;;;;7.73;68.33;97459.06;1047996;28;20023;-77
2021/03/30 00:17:18;;;;;;;16.50;7.90;;;;;;;7.71;68.75;97447.81;1048153;28;20027;-77
2021/03/30 00:17:49;;;;;;;13.93;7.53;;;;;;;7.72;68.51;97454.75;1048121;28;20024;-77
2021/03/30 00:18:19;;;;;;;12.50;7.20;;;;;;;7.70;68.56;97451.50;1048155;28;20021;-77
2021/03/30 00:18:50;;;;;;;17.40;7.83;;;;;;;7.67;68.44;97451.94;1048155;28;20097;-77
2021/03/30 00:19:20;;;;;;;12.73;7.63;;;;;;;7.68;69.06;97452.78;1048481;28;20021;-76
2021/03/30 00:19:51;;;;;;;10.97;7.20;;;;;;;7.69;68.49;97452.56;1048332;28;20023;-77
2021/03/30 00:20:21;;;;;;;14.43;7.17;;;;;;;7.65;68.84;97451.34;1048165;28;20028;-77
2021/03/30 00:20:51;;;;;;;12.83;7.53;;;;;;;7.67;68.62;97446.63;1048167;28;20016;-77
2021/03/30 00:21:22;;;;;;;19.83;8.03;;;;;;;7.70;68.60;97440.88;1048073;28;20033;-76
2021/03/30 00:21:52;;;;;;;13.50;7.23;;;;;;;7.70;68.42;97443.53;1048135;28;20025;-77
2021/03/30 00:22:23;;;;;;;18.23;7.90;;;;;;;7.71;68.47;97447.81;1048470;28;20078;-77
2021/03/30 00:22:53;;;;;;;13.90;7.10;;;;;;;7.70;68.43;97432.06;1048640;28;20070;-77
2021/03/30 00:23:24;;;;;;;19.03;7.73;;;;;;;7.68;68.65;97440.28;1045972;28;20028;-77
2021/03/30 00:23:54;;;;;;;12.33;7.07;;;;;;;7.72;68.07;97444.13;1044820;28;20025;-77
2021/03/30 00:24:24;;;;;;;16.60;7.17;;;;;;;7.72;68.08;97443.31;1044829;28;20043;-77
2021/03/30 00:24:55;;;;;;;13.07;7.20;;;;;;;7.72;68.15;97440.66;1044867;28;20071;-77
2021/03/30 00:25:25;;;;;;;13.73;7.57;;;;;;;7.75;68.11;97445.56;1045033;28;20063;-77
2021/03/30 00:25:56;;;;;;;15.57;8.00;;;;;;;7.73;68.47;97440.44;1045121;28;20025;-76
2021/03/30 00:26:26;;;;;;;11.00;7.17;;;;;;;7.70;68.59;97442.72;1044863;28;20025;-76
2021/03/30 00:26:56;;;;;;;15.07;7.13;;;;;;;7.73;68.57;97439.63;1040686;28;20010;-77
2021/03/30 00:27:27;;;;;;;17.27;6.87;;;;;;;7.76;68.61;97436.53;1040525;28;20014;-77
2021/03/30 00:27:57;;;;;;;14.20;7.50;;;;;;;7.79;68.29;97441.44;1038283;28;20041;-77
2021/03/30 00:28:28;;;;;;;18.00;6.93;;;;;;;7.78;68.00;97445.13;1044715;28;20017;-77
2021/03/30 00:28:58;;;;;;;12.10;6.40;;;;;;;7.78;67.89;97440.63;1044677;28;20056;-77
2021/03/30 00:29:28;;;;;;;10.07;6.60;;;;;;;7.78;68.41;97443.28;1044781;28;20033;-77
2021/03/30 00:29:59;;;;;;;11.43;6.77;;;;;;;7.77;67.82;97443.47;1047656;28;20404;-77
2021/03/30 00:30:29;;;;;;;13.33;7.37;;;;;;;7.75;68.45;97438.38;1044792;28;20021;-77
2021/03/30 00:31:00;;;;;;;13.93;7.67;;;;;;;7.73;68.06;97440.44;1044784;28;20009;-77
2021/03/30 00:31:30;;;;;;;14.67;7.33;;;;;;;7.73;68.16;97440.44;1044817;28;20013;-77
2021/03/30 00:32:01;;;;;;;18.97;7.47;;;;;;;7.74;68.28;97435.94;1044735;28;20066;-77
2021/03/30 00:32:31;;;;;;;12.47;6.77;;;;;;;7.68;68.57;97439.47;1044798;28;20021;-77
2021/03/30 00:33:02;;;;;;;15.37;6.70;;;;;;;7.70;68.34;97442.72;1041646;28;20398;-77
2021/03/30 00:33:32;;;;;;;15.40;7.03;;;;;;;7.68;68.30;97442.94;1044887;28;20406;-77
2021/03/30 00:34:03;;;;;;;15.47;6.83;;;;;;;7.73;68.65;97432.47;1041197;28;20048;-77
2021/03/30 00:34:33;;;;;;;11.00;7.00;;;;;;;7.70;68.84;97438.22;1040832;28;20132;-77
2021/03/30 00:35:04;;;;;;;11.57;6.87;;;;;;;7.70;68.95;97438.22;1036538;28;20017;-77
2021/03/30 00:35:35;;;;;;;14.23;7.30;;;;;;;7.64;68.85;97439.06;1032792;28;20475;-77
2021/03/30 00:36:06;;;;;;;15.50;7.30;;;;;;;7.57;68.95;97435.63;1038917;28;20049;-77
2021/03/30 00:36:36;;;;;;;13.07;7.10;;;;;;;7.60;68.73;97434.41;1043983;28;20024;-77
2021/03/30 00:37:07;;;;;;;17.33;7.00;;;;;;;7.55;69.01;97433.19;1048918;28;20518;-77
2021/03/30 00:37:38;;;;;;;16.57;7.60;;;;;;;7.55;68.95;97435.84;1048985;28;20162;-77
2021/03/30 00:38:09;;;;;;;13.55;6.95;;;;;;;7.57;68.90;97432.97;1048943;28;20028;-77
2021/03/30 00:38:39;;;;;;;13.55;7.70;;;;;;;7.57;68.69;97432.97;1049037;28;20017;-77
2021/03/30 00:39:10;;;;;;;12.23;6.43;;;;;;;7.61;68.44;97439.50;1047997;28;20032;-77
2021/03/30 00:39:40;;;;;;;13.67;6.90;;;;;;;7.61;68.58;97433.38;1046329;28;20016;-77
2021/03/30 00:40:11;;;;;;;16.23;6.47;;;;;;;7.58;68.80;97434.63;1047131;28;20017;-77
2021/03/30 00:40:41;;;;;;;19.17;7.53;;;;;;;7.59;68.66;97427.47;1047052;28;20492;-77
2021/03/30 00:41:12;;;;;;;12.23;7.40;;;;;;;7.60;68.71;97429.09;1046909;28;20020;-77
2021/03/30 00:41:42;;;;;;;11.30;6.67;;;;;;;7.57;68.39;97427.66;1046892;28;20024;-77
2021/03/30 00:42:17;;;;;;;9.87;6.77;;;;;;;7.57;68.61;97432.97;1046487;28;20028;-76
2021/03/30 00:42:47;;;;;;;22.15;7.40;;;;;;;7.57;68.44;97430.31;1045167;28;20075;-76
2021/03/30 00:43:18;;;;;;;12.73;6.53;;;;;;;7.53;68.98;97431.78;1045180;28;20544;-77
2021/03/30 00:43:49;;;;;;;11.48;6.70;;;;;;;7.52;69.45;97430.13;1044736;28;20091;-76
2021/03/30 00:44:19;;;;;;;13.80;6.93;;;;;;;7.57;68.84;97430.31;1040257;28;20358;-76
2021/03/30 00:44:50;;;;;;;11.63;6.87;;;;;;;7.54;68.79;97428.09;1040502;28;20371;-74
2021/03/30 00:45:21;;;;;;;13.48;6.95;;;;;;;7.54;68.38;97428.91;1036440;28;20038;-77
2021/03/30 00:45:51;;;;;;;12.23;6.57;;;;;;;7.54;68.44;97426.25;1036687;28;20510;-76
2021/03/30 00:46:22;;;;;;;15.17;6.90;;;;;;;7.50;68.33;97430.38;1040654;28;20048;-77
2021/03/30 00:46:52;;;;;;;12.70;7.20;;;;;;;7.53;68.80;97435.28;1032536;28;20046;-77
2021/03/30 00:47:22;;;;;;;13.40;7.23;;;;;;;7.53;68.31;97427.28;1032488;28;20030;-77
2021/03/30 00:47:53;;;;;;;12.23;6.53;;;;;;;7.51;68.44;97432.00;1033484;28;20519;-77
2021/03/30 00:48:25;;;;;;;12.53;7.03;;;;;;;7.55;68.17;97427.88;1033385;28;20030;-77
2021/03/30 00:48:55;;;;;;;10.35;6.72;;;;;;;7.53;68.49;97431.78;1034856;28;20109;-76
2021/03/30 00:49:26;;;;;;;10.40;6.40;;;;;;;7.55;68.51;97430.53;1036540;28;20037;-77
2021/03/30 00:49:56;;;;;;;9.30;6.23;;;;;;;7.56;68.02;97436.66;1032671;28;20023;-77
2021/03/30 00:50:28;;;;;;;11.47;6.53;;;;;;;7.59;68.05;97430.94;1036113;28;20446;-76
2021/03/30 00:50:59;;;;;;;12.00;7.10;;;;;;;7.58;68.69;97431.16;1036658;28;20078;-77
2021/03/30 00:51:29;;;;;;;12.43;6.57;;;;;;;7.58;68.40;97429.31;1036815;28;20030;-77
2021/03/30 00:52:00;;;;;;;12.13;6.97;;;;;;;7.58;68.62;97434.63;1033047;28;20019;-77
2021/03/30 00:52:30;;;;;;;10.93;6.50;;;;;;;7.55;68.68;97430.53;1032635;28;20026;-77
2021/03/30 00:53:00;;;;;;;13.37;6.93;;;;;;;7.53;68.62;97432.59;1032431;28;20033;-77
2021/03/30 00:53:31;;;;;;;13.07;7.17;;;;;;;7.54;68.45;97433.41;1032568;28;20037;-77
2021/03/30 00:54:01;;;;;;;13.57;7.13;;;;;;;7.55;68.45;97427.06;1036488;28;20057;-77
2021/03/30 00:54:32;;;;;;;12.47;6.43;;;;;;;7.56;68.16;97434.81;1037258;28;20097;-77
2021/03/30 00:55:03;;;;;;;14.07;6.67;;;;;;;7.58;68.19;97439.13;1036452;28;20022;-76
2021/03/30 00:55:33;;;;;;;10.63;6.57;;;;;;;7.59;68.58;97435.44;1040612;28;20053;-77
2021/03/30 00:56:04;;;;;;;14.00;7.03;;;;;;;7.58;68.49;97436.47;1043790;28;20083;-76
2021/03/30 00:56:36;;;;;;;11.13;6.70;;;;;;;7.58;68.55;97441.78;1045778;28;20451;-76
2021/03/30 00:57:07;;;;;;;11.90;6.30;;;;;;;7.54;68.57;97438.75;1048780;28;20054;-76
2021/03/30 00:57:37;;;;;;;11.60;6.37;;;;;;;7.49;68.60;97434.06;1048769;28;20082;-77
2021/03/30 00:58:08;;;;;;;11.03;6.53;;;;;;;7.52;68.58;97435.47;1049101;28;20023;-76
2021/03/30 00:58:38;;;;;;;12.00;6.53;;;;;;;7.46;68.72;97436.31;1047163;28;20143;-77
2021/03/30 00:59:09;;;;;;;14.17;6.63;;;;;;;7.43;68.86;97434.94;1044544;28;20024;-76
2021/03/30 00:59:39;;;;;;;10.23;6.43;;;;;;;7.43;68.94;97434.94;1040550;28;20021;-77
2021/03/30 01:00:11;;;;;;;11.13;6.50;;;;;;;7.44;68.82;97438.41;1040551;28;20021;-76
2021/03/30 01:00:41;;;;;;;9.27;6.47;;;;;;;7.46;68.45;97446.97;1040267;28;20021;-76
2021/03/30 01:01:12;;;;;;;13.27;6.63;;;;;;;7.45;68.80;97440.03;1040710;28;20469;-75
2021/03/30 01:01:43;;;;;;;12.03;6.57;;;;;;;7.45;68.65;97437.34;1044969;28;20056;-77
2021/03/30 01:02:14;;;;;;;13.68;6.40;;;;;;;7.43;68.58;97439.44;1044673;28;20017;-77
2021/03/30 01:02:44;;;;;;;10.47;6.20;;;;;;;7.45;68.63;97434.69;1047067;28;20029;-76
2021/03/30 01:03:15;;;;;;;12.53;6.67;;;;;;;7.44;68.60;97438.41;1048703;28;20020;-77
2021/03/30 01:03:45;;;;;;;12.67;6.27;;;;;;;7.43;68.77;97436.78;1048823;28;20024;-77
2021/03/30 01:04:15;;;;;;;9.40;6.47;;;;;;;7.41;68.50;97439.63;1049189;28;20012;-77
2021/03/30 01:04:46;;;;;;;12.53;6.43;;;;;;;7.42;68.58;97443.94;1049106;28;20032;-77
2021/03/30 01:05:16;;;;;;;12.67;6.47;;;;;;;7.44;69.03;97443.72;1049021;28;20028;-77
2021/03/30 01:05:47;;;;;;;11.80;6.90;;;;;;;7.44;68.54;97443.72;1048905;28;20111;-77
2021/03/30 01:06:17;;;;;;;11.73;6.67;;;;;;;7.44;68.82;97443.72;1048980;28;20358;-77
2021/03/30 01:06:48;;;;;;;13.00;6.97;;;;;;;7.42;68.95;97430.63;1049088;28;20405;-77
2021/03/30 01:07:18;;;;;;;11.43;6.73;;;;;;;7.44;68.55;97435.75;1047171;28;20012;-78
2021/03/30 01:07:54;;;;;;;13.17;6.83;;;;;;;7.41;68.43;97434.31;1046909;28;20024;-77
2021/03/30 01:08:31;;;;;;;10.05;5.88;;;;;;;7.40;68.80;97440.66;1048479;28;20032;-76
2021/03/30 01:09:39;;;;;;;13.20;6.78;;;;;;;7.33;69.09;97444.41;1044491;28;20017;-76
2021/03/30 01:10:25;;;;;;;9.00;6.25;;;;;;;7.28;69.46;97451.16;1048786;28;20209;-77
2021/03/30 01:11:06;;;;;;;13.35;6.78;;;;;;;7.28;69.39;97447.69;1047686;28;20027;-76
2021/03/30 01:11:51;;;;;;;11.50;6.68;;;;;;;7.28;69.37;97450.38;1040538;28;20538;-76
2021/03/30 01:12:38;;;;;;;12.90;6.25;;;;;;;7.20;69.35;97451.41;1041017;28;20468;-75
2021/03/30 01:13:20;;;;;;;15.48;6.50;;;;;;;7.15;69.89;97445.91;1045646;28;20021;-76
2021/03/30 01:14:28;;;;;;;11.77;6.63;;;;;;;7.16;69.64;97442.22;1041218;28;20041;-76
2021/03/30 01:15:20;;;;;;;12.25;6.20;;;;;;;7.17;69.66;97443.88;1040474;28;20029;-76
2021/03/30 01:16:03;;;;;;;13.40;6.38;;;;;;;7.17;69.68;97446.53;1044232;28;20027;-75
2021/03/30 01:16:40;;;;;;;12.73;6.32;;;;;;;7.19;69.67;97446.31;1044483;28;20021;-76
2021/03/30 01:17:38;;;;;;;13.82;6.80;;;;;;;7.17;69.35;97451.03;1040836;28;20030;-76
2021/03/30 01:18:17;;;;;;;17.02;6.82;;;;;;;7.17;69.61;97443.06;1040261;28;20025;-77
2021/03/30 01:18:57;;;;;;;13.35;6.75;;;;;;;7.18;69.94;97448.16;1032939;28;20195;-76
2021/03/30 01:20:09;;;;;;;13.90;6.57;;;;;;;7.19;69.68;97447.13;1032290;28;20037;-77
2021/03/30 01:21:16;;;;;;;12.43;6.72;;;;;;;7.20;69.54;97448.75;1033823;28;20057;-76
2021/03/30 01:22:01;;;;;;;12.48;6.97;;;;;;;7.19;69.61;97448.97;1040954;28;20026;-77
2021/03/30 01:22:51;;;;;;;14.80;6.55;;;;;;;7.10;69.43;97443.06;1040586;28;20021;-76
2021/03/30 01:23:40;;;;;;;10.18;6.15;;;;;;;7.11;69.69;97441.22;1039433;28;20542;-76
2021/03/30 01:24:30;;;;;;;12.57;6.50;;;;;;;7.15;69.86;97445.09;1042676;28;20037;-76
2021/03/30 01:25:01;;;;;;;10.60;6.20;;;;;;;7.11;70.03;97439.38;1041408;28;20064;-76
2021/03/30 01:25:31;;;;;;;10.73;6.30;;;;;;;7.12;69.60;97442.88;1040562;28;20029;-76
2021/03/30 01:26:15;;;;;;;15.70;6.60;;;;;;;7.11;69.94;97441.22;1032145;28;20023;-76
2021/03/30 01:26:59;;;;;;;11.52;6.30;;;;;;;7.13;69.58;97441.84;1034342;28;20483;-76
2021/03/30 01:27:34;;;;;;;11.60;5.97;;;;;;;7.04;70.42;97442.09;1036197;28;20022;-77
2021/03/30 01:28:40;;;;;;;10.60;6.03;;;;;;;7.04;69.84;97438.63;1044740;28;20458;-76
2021/03/30 01:29:23;;;;;;;9.50;5.95;;;;;;;7.07;70.02;97442.72;1033317;28;20519;-76
2021/03/30 01:29:54;;;;;;;10.38;6.45;;;;;;;7.07;70.51;97443.53;1036163;28;20372;-76
2021/03/30 01:30:24;;;;;;;12.57;6.83;;;;;;;7.07;69.89;97440.84;1031929;28;20173;-75
2021/03/30 01:30:54;;;;;;;10.53;6.10;;;;;;;7.04;70.20;97439.44;1028056;28;20019;-76
2021/03/30 01:31:25;;;;;;;9.60;6.47;;;;;;;7.05;70.32;97440.25;1028147;28;20399;-75
2021/03/30 01:31:59;;;;;;;14.50;6.37;;;;;;;7.04;70.06;97447.41;1029432;28;20477;-75
2021/03/30 01:32:38;;;;;;;12.07;6.05;;;;;;;7.01;69.91;97441.69;1035888;28;20435;-75
2021/03/30 01:33:10;;;;;;;10.45;6.30;;;;;;;7.02;70.06;97438.84;1035568;28;20116;-76
2021/03/30 01:33:40;;;;;;;10.68;6.25;;;;;;;7.02;69.80;97438.03;1037978;28;20018;-76
2021/03/30 01:34:11;;;;;;;10.73;5.90;;;;;;;7.03;69.77;97444.97;1036195;28;20359;-76
2021/03/30 01:34:43;;;;;;;10.23;5.65;;;;;;;7.01;70.06;97444.34;1031715;28;20026;-75
2021/03/30 01:35:15;;;;;;;10.38;6.40;;;;;;;7.02;69.94;97440.69;1028573;28;20026;-75
2021/03/30 01:35:45;;;;;;;14.25;6.25;;;;;;;6.99;70.00;97439.25;1028278;28;20080;-76
2021/03/30 01:36:18;;;;;;;10.33;5.97;;;;;;;6.99;70.21;97444.56;1029170;28;20035;-75
2021/03/30 01:36:48;;;;;;;13.82;6.43;;;;;;;6.95;70.22;97438.03;1032339;28;20018;-76
2021/03/30 01:37:18;;;;;;;12.13;6.23;;;;;;;6.97;70.12;97438.66;1025094;28;20392;-76
2021/03/30 01:37:49;;;;;;;15.57;6.60;;;;;;;6.99;70.06;97433.94;1028276;28;20468;-76
2021/03/30 01:38:19;;;;;;;12.80;6.20;;;;;;;6.99;70.43;97436.59;1024457;28;20051;-76
2021/03/30 01:38:50;;;;;;;15.17;6.80;;;;;;;6.98;70.49;97434.16;1028352;28;20023;-77
2021/03/30 01:39:22;;;;;;;12.13;5.80;;;;;;;7.02;70.42;97438.03;1036422;28;20026;-77
2021/03/30 01:39:54;;;;;;;13.18;6.13;;;;;;;7.02;70.10;97440.69;1036340;28;20068;-77
2021/03/30 01:40:26;;;;;;;9.43;5.38;;;;;;;7.01;70.33;97436.38;1028755;28;20102;-77
2021/03/30 01:40:56;;;;;;;11.98;6.28;;;;;;;7.02;69.69;97446.00;1028256;28;20033;-77
2021/03/30 01:41:27;;;;;;;12.60;6.23;;;;;;;7.03;69.93;97432.47;1024870;28;20345;-76
2021/03/30 01:41:57;;;;;;;12.67;5.87;;;;;;;7.05;69.85;97432.25;1028610;28;20526;-77
2021/03/30 01:42:29;;;;;;;12.67;6.13;;;;;;;7.03;70.07;97431.66;1032411;28;20066;-76
2021/03/30 01:43:00;;;;;;;14.07;5.88;;;;;;;7.03;70.06;97429.81;1032289;28;20034;-76
2021/03/30 01:43:30;;;;;;;12.20;5.80;;;;;;;7.05;69.53;97437.56;1028994;28;20111;-76
2021/03/30 01:44:01;;;;;;;10.10;5.43;;;;;;;7.06;69.51;97433.88;1036028;28;20029;-76
2021/03/30 01:44:31;;;;;;;12.80;6.00;;;;;;;7.02;69.95;97430.03;1031949;28;20030;-76
2021/03/30 01:45:02;;;;;;;11.50;5.77;;;;;;;7.03;69.87;97437.81;1032051;28;20033;-76
2021/03/30 01:45:33;;;;;;;9.75;5.78;;;;;;;7.06;69.63;97425.09;1040499;28;20049;-76
2021/03/30 01:46:03;;;;;;;14.80;6.40;;;;;;;7.04;69.42;97431.44;1040455;28;20045;-77
2021/03/30 01:46:34;;;;;;;13.23;6.10;;;;;;;7.01;69.85;97426.56;1040422;28;20033;-76
2021/03/30 01:47:04;;;;;;;15.90;6.20;;;;;;;7.01;69.66;97436.38;1040397;28;20139;-76
2021/03/30 01:47:35;;;;;;;11.13;5.50;;;;;;;7.04;69.79;97425.31;1040495;28;20061;-77
2021/03/30 01:48:06;;;;;;;11.18;5.80;;;;;;;7.02;69.82;97436.19;1036423;28;20479;-78
2021/03/30 01:48:37;;;;;;;13.87;6.27;;;;;;;7.00;70.16;97426.75;1036600;28;20029;-76
2021/03/30 01:49:07;;;;;;;10.47;5.17;;;;;;;7.01;69.83;97434.56;1036367;28;20064;-76
2021/03/30 01:49:38;;;;;;;8.10;5.50;;;;;;;6.97;69.76;97429.88;1028744;28;20031;-76
2021/03/30 01:50:09;;;;;;;9.43;5.47;;;;;;;6.99;69.84;97428.63;1036342;28;20037;-76
2021/03/30 01:50:40;;;;;;;9.38;5.25;;;;;;;7.00;69.66;97429.44;1036574;28;20419;-76
2021/03/30 01:51:11;;;;;;;9.43;5.53;;;;;;;7.01;69.77;97428.38;1040715;28;20028;-77
2021/03/30 01:51:41;;;;;;;10.47;5.37;;;;;;;7.01;69.37;97431.91;1044816;28;20025;-77
2021/03/30 01:52:15;;;;;;;10.17;5.60;;;;;;;7.01;69.58;97428.38;1044781;28;20035;-77
2021/03/30 01:52:45;;;;;;;12.23;5.82;;;;;;;7.01;69.57;97428.38;1044768;28;20017;-76
2021/03/30 01:53:16;;;;;;;9.37;5.90;;;;;;;6.99;69.77;97428.63;1044416;28;20040;-76
2021/03/30 01:53:46;;;;;;;9.90;5.37;;;;;;;6.96;70.31;97428.22;1036213;28;20041;-76
2021/03/30 01:54:17;;;;;;;9.77;5.60;;;;;;;6.95;70.12;97421.28;1036104;28;20068;-76
2021/03/30 01:54:48;;;;;;;12.20;5.83;;;;;;;6.95;69.87;97434.56;1028363;28;20034;-76
2021/03/30 01:55:19;;;;;;;8.60;5.18;;;;;;;6.95;69.81;97424.75;1028618;28;20046;-76
2021/03/30 01:55:52;;;;;;;13.30;5.53;;;;;;;6.97;69.93;97428.03;1036256;28;20030;-76
2021/03/30 01:56:22;;;;;;;10.02;5.75;;;;;;;6.94;69.49;97430.28;1032832;28;20466;-76
2021/03/30 01:56:54;;;;;;;9.50;5.60;;;;;;;6.95;69.60;97426.59;1032774;28;20031;-76
2021/03/30 01:57:26;;;;;;;12.88;5.85;;;;;;;6.95;69.56;97422.09;1036977;28;20104;-76
2021/03/30 01:57:58;;;;;;;9.95;5.55;;;;;;;6.92;69.75;97429.69;1040881;28;20029;-76
2021/03/30 01:58:29;;;;;;;12.23;5.63;;;;;;;6.94;69.93;97432.94;1041064;28;20060;-76
2021/03/30 01:59:00;;;;;;;10.27;5.83;;;;;;;6.93;69.89;97421.50;1039996;28;20079;-76
2021/03/30 01:59:30;;;;;;;11.27;5.70;;;;;;;6.93;70.00;97426.00;1036224;28;20479;-77
2021/03/30 02:00:01;;;;;;;11.37;6.00;;;;;;;6.91;69.87;97423.56;1036572;28;20026;-76
2021/03/30 02:00:33;;;;;;;10.30;5.70;;;;;;;6.92;69.61;97424.38;1040400;28;20060;-75
2021/03/30 02:01:03;;;;;;;12.10;5.72;;;;;;;6.90;69.34;97423.75;1032953;28;20491;-76
2021/03/30 02:01:35;;;;;;;12.70;5.37;;;;;;;6.90;69.48;97427.22;1032210;28;20022;-76
2021/03/30 02:02:05;;;;;;;9.48;5.50;;;;;;;6.90;69.76;97431.72;1028228;28;20500;-75
2021/03/30 02:02:36;;;;;;;10.83;5.40;;;;;;;6.88;69.36;97423.97;1028237;28;20026;-75
2021/03/30 02:03:06;;;;;;;10.07;5.53;;;;;;;6.89;69.81;97419.47;1028189;28;20022;-76
2021/03/30 02:03:37;;;;;;;9.40;5.43;;;;;;;6.90;69.84;97424.56;1032173;28;20033;-78
2021/03/30 02:04:07;;;;;;;9.47;5.13;;;;;;;6.91;69.78;97434.19;1028232;28;20045;-77
2021/03/30 02:04:38;;;;;;;9.77;5.73;;;;;;;6.91;69.60;97425.38;1032380;28;20022;-77
2021/03/30 02:05:09;;;;;;;7.75;5.15;;;;;;;6.88;69.77;97423.97;1028398;28;20085;-77
2021/03/30 02:05:40;;;;;;;11.83;5.30;;;;;;;6.89;69.93;97432.75;1024597;28;20078;-77
2021/03/30 02:06:10;;;;;;;12.73;5.40;;;;;;;6.86;70.08;97427.84;1028194;28;20077;-77
2021/03/30 02:06:42;;;;;;;13.33;5.63;;;;;;;6.85;70.11;97431.53;1024400;28;20492;-77
2021/03/30 02:07:16;;;;;;;10.93;5.35;;;;;;;6.86;69.98;97422.53;1024811;28;20646;-77
2021/03/30 02:07:46;;;;;;;8.32;5.10;;;;;;;6.89;69.79;97424.78;1028585;28;20033;-77
2021/03/30 02:08:17;;;;;;;13.20;5.53;;;;;;;6.87;69.96;97426.84;1033488;28;20062;-77
2021/03/30 02:08:47;;;;;;;10.97;5.27;;;;;;;6.86;69.98;97420.72;1036739;28;20022;-77
2021/03/30 02:09:21;;;;;;;10.60;5.40;;;;;;;6.86;69.53;97423.38;1040323;28;20017;-77
2021/03/30 02:09:56;;;;;;;13.00;5.18;;;;;;;6.85;69.40;97421.72;1036791;28;20109;-77
2021/03/30 02:10:35;;;;;;;14.23;5.35;;;;;;;6.87;69.82;97418.88;1033290;28;20029;-77
2021/03/30 02:11:05;;;;;;;9.38;4.80;;;;;;;6.84;70.07;97424.59;1036164;28;20103;-77
2021/03/30 02:11:43;;;;;;;9.77;5.30;;;;;;;6.85;69.74;97419.06;1034175;28;20050;-77
2021/03/30 02:12:17;;;;;;;9.52;4.85;;;;;;;6.82;69.81;97421.34;1039047;28;20108;-77
2021/03/30 02:12:47;;;;;;;13.40;5.25;;;;;;;6.83;69.71;97421.13;1042892;28;20390;-77
2021/03/30 02:13:24;;;;;;;10.80;5.20;;;;;;;6.81;69.77;97425.00;1041885;28;20025;-77
2021/03/30 02:13:57;;;;;;;10.88;4.93;;;;;;;6.78;69.69;97413.78;1040032;28;20033;-77
2021/03/30 02:14:28;;;;;;;10.55;5.38;;;;;;;6.78;69.96;97427.06;1036156;28;20030;-77
2021/03/30 02:14:58;;;;;;;13.70;5.20;;;;;;;6.77;69.91;97428.09;1033544;28;20384;-77
2021/03/30 02:15:29;;;;;;;11.87;5.20;;;;;;;6.75;69.98;97422.16;1037267;28;20045;-77
2021/03/30 02:16:13;;;;;;;10.13;5.33;;;;;;;6.75;69.72;97426.66;1036467;28;20489;-77
2021/03/30 02:16:57;;;;;;;12.68;5.00;;;;;;;6.70;69.77;97429.94;1034132;28;20021;-77
2021/03/30 02:17:51;;;;;;;9.32;4.72;;;;;;;6.70;69.64;97421.16;1036194;28;20026;-77
2021/03/30 02:18:21;;;;;;;9.73;5.00;;;;;;;6.73;69.58;97428.72;1039604;28;20032;-76
2021/03/30 02:19:11;;;;;;;12.50;5.27;;;;;;;6.68;69.67;97418.72;1040259;28;20564;-77
2021/03/30 02:19:47;;;;;;;11.23;5.45;;;;;;;6.72;69.74;97419.94;1036250;28;20097;-76
2021/03/30 02:20:20;;;;;;;10.10;5.22;;;;;;;6.72;69.62;97424.44;1035435;28;20038;-77
2021/03/30 02:20:52;;;;;;;13.40;5.30;;;;;;;6.70;69.68;97418.50;1031743;28;20030;-77
2021/03/30 02:21:25;;;;;;;10.02;5.03;;;;;;;6.69;69.62;97428.31;1025712;28;20035;-77
2021/03/30 02:21:58;;;;;;;10.32;5.20;;;;;;;6.68;69.93;97424.03;1025087;28;20031;-76
2021/03/30 02:22:36;;;;;;;11.02;5.50;;;;;;;6.67;70.12;97425.06;1029025;28;20037;-76
2021/03/30 02:23:17;;;;;;;10.55;5.60;;;;;;;6.67;69.95;97432.22;1031529;28;20527;-76
2021/03/30 02:23:48;;;;;;;16.60;6.25;;;;;;;6.68;69.99;97432.00;1030890;28;20026;-76
2021/03/30 02:24:18;;;;;;;8.90;5.13;;;;;;;6.68;69.67;97429.34;1034680;28;20041;-76
2021/03/30 02:24:49;;;;;;;7.40;4.83;;;;;;;6.69;69.57;97427.50;1032080;28;20021;-75
2021/03/30 02:25:19;;;;;;;10.73;5.70;;;;;;;6.68;70.04;97429.34;1028376;28;20038;-75
2021/03/30 02:25:55;;;;;;;11.17;5.03;;;;;;;6.66;69.79;97423.44;1036043;28;20021;-76
2021/03/30 02:26:25;;;;;;;9.20;5.05;;;;;;;6.67;70.14;97421.59;1032124;28;20126;-78
2021/03/30 02:26:56;;;;;;;9.30;5.20;;;;;;;6.68;69.97;97424.03;1032765;28;20077;-77
2021/03/30 02:27:26;;;;;;;9.70;4.73;;;;;;;6.69;69.71;97424.84;1036199;28;20090;-76
2021/03/30 02:28:02;;;;;;;13.30;5.67;;;;;;;6.69;69.74;97417.69;1032171;28;20419;-76
2021/03/30 02:28:46;;;;;;;11.63;5.30;;;;;;;6.69;69.79;97424.84;1032008;28;20011;-76
2021/03/30 02:29:18;;;;;;;10.15;5.20;;;;;;;6.67;69.95;97424.25;1032075;28;20022;-77
2021/03/30 02:29:50;;;;;;;8.40;5.13;;;;;;;6.69;69.52;97422.19;1034941;28;20459;-77
2021/03/30 02:30:21;;;;;;;12.02;4.85;;;;;;;6.70;69.56;97423.81;1037268;28;20487;-77
2021/03/30 02:30:51;;;;;;;10.93;5.47;;;;;;;6.70;69.77;97421.97;1031989;28;20013;-77
2021/03/30 02:31:25;;;;;;;11.17;5.53;;;;;;;6.67;69.81;97416.28;1028156;28;20034;-76
2021/03/30 02:31:56;;;;;;;13.38;5.75;;;;;;;6.68;69.85;97418.72;1028752;28;20030;-76
2021/03/30 02:32:26;;;;;;;13.07;5.40;;;;;;;6.66;70.07;97423.44;1029276;28;20027;-77
2021/03/30 02:32:57;;;;;;;12.70;5.70;;;;;;;6.64;69.94;97420.16;1028959;28;20030;-76
2021/03/30 02:33:27;;;;;;;13.03;5.57;;;;;;;6.66;69.62;97425.28;1032090;28;20014;-76
2021/03/30 02:33:59;;;;;;;13.00;5.63;;;;;;;6.66;69.77;97418.13;1028116;28;20022;-77
2021/03/30 02:34:30;;;;;;;12.30;5.63;;;;;;;6.65;69.64;97421.78;1032371;28;20058;-76
2021/03/30 02:35:03;;;;;;;10.02;5.47;;;;;;;6.64;69.95;97420.16;1036544;28;20026;-75
2021/03/30 02:35:33;;;;;;;12.02;5.50;;;;;;;6.64;69.70;97420.16;1036129;28;20048;-76